Time;durP1;ratioP1;P1;durP2;ratioP2;P2;SDS_P1;SDS_P2;PMS_P1;PMS_P2;Temp;Humidity;BMP_temperature;BMP_pressure;BME280_temperature;BME280_humidity;BME280_pressure;Samples;Min_cycle;Max_cycle;Signal;HPM_P1;HPM_P2
2023/09/07 00:02:15;;;;;;;8.60;7.80;;;;;;;13.78;100.00;99995.50;5016645;28;20605;-80
2023/09/07 00:04:45;;;;;;;8.37;7.67;;;;;;;13.75;100.00;99995.16;5000245;28;20207;-80
2023/09/07 00:07:13;;;;;;;8.13;7.43;;;;;;;13.68;100.00;100001.47;5000881;28;20675;-80
2023/09/07 00:09:41;;;;;;;8.10;7.37;;;;;;;13.61;100.00;99997.25;4986913;28;20233;-80
2023/09/07 00:12:08;;;;;;;8.43;7.63;;;;;;;13.58;100.00;99989.59;5002333;28;20230;-80
2023/09/07 00:14:36;;;;;;;9.03;8.13;;;;;;;13.56;100.00;99997.13;5008801;28;20186;-80
2023/09/07 00:17:05;;;;;;;8.13;7.43;;;;;;;13.52;100.00;100002.13;5030138;28;20236;-81
2023/09/07 00:23:55;;;;;;;8.83;7.93;;;;;;;13.38;100.00;99997.16;5002865;28;20225;-81
2023/09/07 00:26:28;;;;;;;8.67;7.93;;;;;;;13.34;100.00;99990.63;5047493;28;20293;-81
2023/09/07 00:29:00;;;;;;;8.70;8.00;;;;;;;13.33;100.00;100000.56;5018871;28;20182;-83
2023/09/07 00:32:05;;;;;;;8.70;7.90;;;;;;;13.30;100.00;99992.91;5859399;23;20242;-82
2023/09/07 00:34:42;;;;;;;8.30;7.50;;;;;;;13.31;100.00;99996.44;4992643;28;20186;-82
2023/09/07 00:37:10;;;;;;;8.30;7.60;;;;;;;13.27;100.00;99992.56;5000716;28;20199;-82
2023/09/07 00:39:39;;;;;;;8.93;8.07;;;;;;;13.26;100.00;99990.91;4997651;28;20211;-81
2023/09/07 00:42:12;;;;;;;9.53;8.50;;;;;;;13.26;100.00;99998.97;4998222;28;20186;-82
2023/09/07 00:44:40;;;;;;;8.80;8.10;;;;;;;13.22;100.00;99996.75;4997175;28;20202;-82
2023/09/07 00:47:38;;;;;;;8.40;7.70;;;;;;;13.19;100.00;99991.84;4985432;28;20198;-81
2023/09/07 00:50:16;;;;;;;8.70;7.97;;;;;;;13.15;100.00;99993.34;4946897;28;20184;-81
2023/09/07 00:52:53;;;;;;;8.43;7.73;;;;;;;13.12;100.00;99991.09;4981248;28;20189;-81
2023/09/07 00:55:32;;;;;;;9.00;8.10;;;;;;;13.07;100.00;99985.53;4982996;28;20203;-80
2023/09/07 00:58:15;;;;;;;9.20;8.30;;;;;;;13.05;100.00;99986.81;4988022;28;20192;-81
2023/09/07 01:01:03;;;;;;;8.93;8.23;;;;;;;13.05;100.00;99981.44;4971732;28;20641;-81
2023/09/07 01:03:33;;;;;;;8.47;7.80;;;;;;;13.02;100.00;99982.72;4981063;28;20275;-81
2023/09/07 01:06:08;;;;;;;7.97;7.27;;;;;;;13.00;100.00;99976.75;4982401;28;20220;-81
2023/09/07 01:09:05;;;;;;;9.07;8.27;;;;;;;13.00;100.00;99984.00;4966942;28;20222;-81
2023/09/07 01:12:27;;;;;;;9.10;8.30;;;;;;;12.94;100.00;99977.66;5007112;28;20174;-81
2023/09/07 01:14:58;;;;;;;10.10;8.20;;;;;;;12.91;100.00;99971.91;4992861;28;20202;-81
2023/09/07 01:17:34;;;;;;;9.93;8.10;;;;;;;12.86;100.00;99972.59;4992312;28;20289;-81
2023/09/07 01:20:16;;;;;;;8.47;7.80;;;;;;;12.84;100.00;99980.03;4972457;28;20274;-81
2023/09/07 01:22:53;;;;;;;9.00;8.27;;;;;;;12.82;100.00;99978.66;4994178;28;20217;-81
2023/09/07 01:25:28;;;;;;;9.07;8.23;;;;;;;12.79;100.00;99990.66;4993424;28;20187;-82
2023/09/07 01:28:27;;;;;;;9.80;8.80;;;;;;;12.75;100.00;99992.97;4995849;28;20198;-81
2023/09/07 01:31:09;;;;;;;9.07;8.27;;;;;;;12.69;100.00;99985.81;4975700;28;20197;-82
2023/09/07 01:38:21;;;;;;;8.57;7.83;;;;;;;12.63;100.00;99985.91;4990786;28;20193;-82
2023/09/07 01:40:49;;;;;;;9.23;8.53;;;;;;;12.59;100.00;99990.09;4989198;28;20220;-82
2023/09/07 01:43:17;;;;;;;9.00;8.10;;;;;;;12.55;100.00;99987.00;4989551;28;20220;-82
2023/09/07 01:45:57;;;;;;;8.03;7.37;;;;;;;12.51;100.00;99983.13;4973925;28;20182;-81
2023/09/07 01:48:47;;;;;;;8.63;7.93;;;;;;;12.47;100.00;99986.47;4989804;28;20223;-82
2023/09/07 01:51:28;;;;;;;9.07;8.30;;;;;;;12.48;100.00;99991.63;4986211;28;20208;-82
2023/09/07 01:54:28;;;;;;;9.03;8.20;;;;;;;12.45;100.00;99986.72;4988657;28;20207;-81
2023/09/07 01:57:05;;;;;;;8.60;7.70;;;;;;;12.42;100.00;99986.31;5004793;28;20209;-82
2023/09/07 02:00:05;;;;;;;8.13;7.53;;;;;;;12.37;100.00;99981.63;4990090;28;20186;-82
2023/09/07 02:03:26;;;;;;;8.07;7.40;;;;;;;12.32;100.00;99987.66;4969269;28;20226;-81
2023/09/07 02:06:07;;;;;;;8.43;7.73;;;;;;;12.31;100.00;99982.53;4988476;28;20200;-81
2023/09/07 02:08:44;;;;;;;8.63;7.90;;;;;;;12.30;100.00;99991.63;4970001;28;20198;-81
2023/09/07 02:11:18;;;;;;;8.80;8.10;;;;;;;12.24;100.00;99993.31;4984870;28;20194;-82
2023/09/07 02:14:15;;;;;;;9.00;8.20;;;;;;;12.19;100.00;100001.22;4985528;28;20202;-81
2023/09/07 02:16:51;;;;;;;9.00;8.30;;;;;;;12.17;100.00;100007.88;4970733;28;20288;-82
2023/09/07 02:19:22;;;;;;;9.57;8.77;;;;;;;12.15;100.00;100004.56;5001673;28;20201;-82
2023/09/07 02:22:04;;;;;;;8.47;7.77;;;;;;;12.12;100.00;100008.53;4985601;28;20216;-82
2023/09/07 02:24:46;;;;;;;9.50;8.70;;;;;;;12.09;100.00;100006.25;4970320;28;20220;-82
2023/09/07 02:27:42;;;;;;;8.90;8.20;;;;;;;12.07;100.00;100011.06;4960120;28;20210;-82
2023/09/07 02:30:31;;;;;;;8.87;8.07;;;;;;;12.04;100.00;100008.78;4985978;28;20214;-82
2023/09/07 02:33:20;;;;;;;8.77;8.07;;;;;;;12.03;100.00;100015.22;4984460;28;20235;-82
2023/09/07 02:36:06;;;;;;;8.80;8.10;;;;;;;12.05;100.00;100017.66;4986603;28;20213;-82
2023/09/07 02:38:46;;;;;;;8.90;8.07;;;;;;;12.00;100.00;100012.13;4986368;28;20190;-82
2023/09/07 02:41:27;;;;;;;8.87;8.13;;;;;;;12.00;100.00;100012.13;4968828;28;20207;-81
2023/09/07 02:44:07;;;;;;;8.07;7.47;;;;;;;11.97;100.00;100023.31;5000080;28;20213;-82
2023/09/07 02:46:43;;;;;;;8.87;8.07;;;;;;;11.96;100.00;100019.81;4951957;28;20189;-82
2023/09/07 02:49:15;;;;;;;9.07;7.60;;;;;;;11.91;100.00;100014.28;4983720;28;20198;-82
2023/09/07 02:51:51;;;;;;;8.27;7.67;;;;;;;11.91;100.00;100015.09;4967936;28;20269;-82
2023/09/07 02:54:33;;;;;;;8.13;7.53;;;;;;;11.91;100.00;100015.09;4955264;28;20244;-82
2023/09/07 02:57:08;;;;;;;8.50;7.80;;;;;;;11.90;100.00;100013.44;4969582;28;20226;-81
2023/09/07 02:59:46;;;;;;;9.57;8.47;;;;;;;11.91;100.00;100020.47;4985235;28;20245;-82
2023/09/07 03:02:20;;;;;;;8.83;8.07;;;;;;;11.90;100.00;100026.88;4953254;28;20178;-81
2023/09/07 03:04:58;;;;;;;8.60;7.90;;;;;;;11.89;100.00;100019.06;4983443;28;20201;-82
2023/09/07 03:08:07;;;;;;;8.70;8.00;;;;;;;11.86;100.00;100022.97;4999540;28;20261;-82
2023/09/07 03:10:40;;;;;;;8.70;8.00;;;;;;;11.86;100.00;100030.22;4986166;28;20197;-82
2023/09/07 03:13:09;;;;;;;8.83;8.03;;;;;;;11.82;100.00;100020.94;5002230;28;20187;-82
2023/09/07 03:15:40;;;;;;;8.53;7.83;;;;;;;11.78;100.00;100022.44;4968338;28;20248;-82
2023/09/07 03:18:17;;;;;;;8.17;7.57;;;;;;;11.74;100.00;100026.59;4967805;28;20201;-81
2023/09/07 03:20:47;;;;;;;8.67;7.97;;;;;;;11.74;100.00;100021.22;4983822;28;20217;-81
2023/09/07 03:23:30;;;;;;;8.80;8.00;;;;;;;11.73;100.00;100019.56;4969123;28;20591;-82
2023/09/07 03:26:02;;;;;;;9.50;8.70;;;;;;;11.70;100.00;100028.03;4999264;28;20202;-81
2023/09/07 03:28:32;;;;;;;8.63;7.90;;;;;;;11.69;100.00;100024.53;4984266;28;20209;-81
2023/09/07 03:31:36;;;;;;;8.33;7.63;;;;;;;11.68;100.00;100033.63;4955622;29;20204;-82
2023/09/07 03:34:11;;;;;;;9.40;8.50;;;;;;;11.62;100.00;100039.03;4944263;29;20257;-82
2023/09/07 03:36:39;;;;;;;8.77;8.07;;;;;;;11.58;100.00;100035.94;4962662;29;20205;-82
2023/09/07 03:39:13;;;;;;;9.00;8.20;;;;;;;11.56;100.00;100030.00;4963480;29;20199;-82
2023/09/07 03:41:44;;;;;;;8.93;8.23;;;;;;;11.56;100.00;100032.69;4946373;29;20209;-82
2023/09/07 03:44:16;;;;;;;8.43;7.73;;;;;;;11.52;100.00;100033.31;4962905;29;20225;-82
2023/09/07 03:46:47;;;;;;;8.70;7.83;;;;;;;11.52;100.00;100030.63;4964102;29;20211;-81
2023/09/07 03:49:21;;;;;;;8.33;7.63;;;;;;;11.51;100.00;100034.34;4963495;29;20235;-82
2023/09/07 03:51:57;;;;;;;8.40;7.63;;;;;;;11.52;100.00;100034.16;4947353;29;20278;-81
2023/09/07 03:54:27;;;;;;;8.53;7.83;;;;;;;11.51;100.00;100042.41;4947580;29;20262;-82
2023/09/07 03:56:55;;;;;;;8.17;7.37;;;;;;;11.50;100.00;100038.91;4946917;29;20213;-82
2023/09/07 03:59:38;;;;;;;8.33;7.67;;;;;;;11.49;100.00;100038.06;4939628;29;20306;-82
2023/09/07 04:02:12;;;;;;;9.40;8.60;;;;;;;11.49;100.00;100038.06;4946105;29;20198;-81
2023/09/07 04:05:04;;;;;;;8.77;8.07;;;;;;;11.50;100.00;100033.53;4962158;29;20386;-83
2023/09/07 04:07:52;;;;;;;8.90;8.13;;;;;;;11.46;100.00;100040.38;4949671;28;20693;-82
2023/09/07 04:10:24;;;;;;;8.60;7.90;;;;;;;11.45;100.00;100041.41;4952874;28;20286;-82
2023/09/07 04:13:04;;;;;;;8.47;7.67;;;;;;;11.43;100.00;100044.28;4984907;28;20174;-82
2023/09/07 04:15:45;;;;;;;8.70;8.03;;;;;;;11.39;100.00;100043.06;4969685;28;20175;-82
2023/09/07 04:18:19;;;;;;;8.60;7.90;;;;;;;11.39;100.00;100039.56;4950929;28;20744;-82
2023/09/07 04:29:58;;;;;;;9.10;8.20;;;;;;;11.40;100.00;100041.22;4884520;29;20249;-81
2023/09/07 04:32:38;;;;;;;8.97;8.17;;;;;;;11.43;100.00;100048.84;4874069;29;20236;-82
2023/09/07 04:35:21;;;;;;;9.33;8.43;;;;;;;11.44;100.00;100047.78;4860168;29;20194;-82
2023/09/07 04:38:02;;;;;;;9.07;8.27;;;;;;;11.45;100.00;100054.81;4875450;29;20195;-82
2023/09/07 04:40:36;;;;;;;9.23;8.43;;;;;;;11.48;100.00;100051.69;4878121;29;20303;-82
2023/09/07 04:43:28;;;;;;;9.43;8.73;;;;;;;11.52;100.00;100049.41;4881057;29;20242;-82
2023/09/07 04:45:59;;;;;;;8.67;7.87;;;;;;;11.54;100.00;100053.53;4907415;29;20207;-81
2023/09/07 04:48:44;;;;;;;9.60;8.70;;;;;;;11.60;100.00;100054.53;4908896;29;20189;-81
2023/09/07 04:51:45;;;;;;;9.13;8.33;;;;;;;11.66;100.00;100059.03;4908593;29;20207;-81
2023/09/07 04:54:23;;;;;;;9.93;9.00;;;;;;;11.73;100.00;100068.72;4867860;29;20205;-83
2023/09/07 04:56:53;;;;;;;9.13;8.30;;;;;;;11.80;100.00;100066.78;4886104;29;20196;-82
2023/09/07 04:59:29;;;;;;;9.10;8.33;;;;;;;11.91;100.00;100073.34;4908709;29;20196;-82
2023/09/07 05:02:26;;;;;;;9.60;8.80;;;;;;;12.03;100.00;100073.47;4884064;29;20247;-82
2023/09/07 05:05:04;;;;;;;9.40;8.50;;;;;;;12.15;100.00;100079.78;4908601;29;20222;-82
2023/09/07 05:08:37;;;;;;;9.67;8.87;;;;;;;12.28;100.00;100082.34;4907440;29;20204;-83
2023/09/07 05:11:40;;;;;;;9.60;8.70;;;;;;;12.43;100.00;100082.84;4894186;29;20200;-82
2023/09/07 05:19:18;;;;;;;9.93;9.13;;;;;;;12.86;100.00;100085.53;4938616;29;20684;-83
2023/09/07 05:36:14;;;;;;;10.47;9.57;;;;;;;13.93;100.00;100083.97;4935876;29;20222;-81
2023/09/07 05:43:24;;;;;;;9.67;8.63;;;;;;;14.38;100.00;100085.13;4922373;29;20258;-81
2023/09/07 05:49:50;;;;;;;9.00;8.30;;;;;;;14.73;100.00;100085.16;4931258;29;20300;-82
2023/09/07 05:52:19;;;;;;;10.43;9.37;;;;;;;14.80;100.00;100085.00;4921593;29;20200;-82
2023/09/07 05:54:57;;;;;;;9.90;8.90;;;;;;;14.92;100.00;100083.97;4921137;29;20196;-83
2023/09/07 05:57:24;;;;;;;10.43;9.53;;;;;;;15.06;100.00;100079.13;4906635;29;20185;-83
2023/09/07 05:59:53;;;;;;;10.00;9.20;;;;;;;15.20;100.00;100087.78;4968582;28;20203;-83
2023/09/07 06:02:20;;;;;;;9.97;9.03;;;;;;;15.35;100.00;100082.69;4979795;28;20191;-84
2023/09/07 06:04:52;;;;;;;11.07;10.07;;;;;;;15.47;100.00;100083.47;4980324;28;20211;-83
2023/09/07 06:07:20;;;;;;;10.40;9.50;;;;;;;15.63;100.00;100084.63;4995585;28;20223;-83
2023/09/07 06:09:50;;;;;;;11.20;10.00;;;;;;;15.72;100.00;100078.56;4979170;28;20192;-83
2023/09/07 06:12:19;;;;;;;10.47;9.67;;;;;;;15.85;100.00;100074.75;4964251;28;20251;-83
2023/09/07 06:14:52;;;;;;;12.33;11.13;;;;;;;15.97;100.00;100083.59;4963489;28;20199;-83
2023/09/07 06:17:21;;;;;;;12.07;10.57;;;;;;;16.02;100.00;100080.16;4979315;28;20213;-83
2023/09/07 06:19:49;;;;;;;12.10;11.00;;;;;;;16.15;100.00;100077.97;4979041;28;20184;-84
2023/09/07 06:22:26;;;;;;;11.07;10.17;;;;;;;16.28;100.00;100084.97;4995317;28;20180;-84
2023/09/07 06:24:55;;;;;;;11.03;10.03;;;;;;;16.42;100.00;100083.56;4962567;28;20299;-87
2023/09/07 06:27:24;;;;;;;10.53;9.63;;;;;;;16.58;100.00;100088.16;4995021;28;20206;-84
2023/09/07 06:29:55;;;;;;;10.73;9.77;;;;;;;16.69;100.00;100089.97;4996487;28;20636;-87
2023/09/07 06:32:25;;;;;;;10.57;9.67;;;;;;;16.82;100.00;100087.94;4995137;28;20188;-83
2023/09/07 06:34:56;;;;;;;10.43;9.50;;;;;;;16.94;100.00;100086.75;4978541;28;20203;-88
2023/09/07 06:37:26;;;;;;;10.40;9.50;;;;;;;17.09;100.00;100086.97;4978821;28;20231;-84
2023/09/07 06:39:57;;;;;;;10.60;9.23;;;;;;;17.24;100.00;100093.66;4962696;28;20195;-84
2023/09/07 06:42:26;;;;;;;11.03;9.40;;;;;;;17.35;100.00;100095.44;4995462;28;20243;-85
2023/09/07 06:45:04;;;;;;;10.60;9.70;;;;;;;17.49;100.00;100093.97;4999038;28;20235;-84
2023/09/07 06:47:33;;;;;;;10.93;9.83;;;;;;;17.60;100.00;100095.75;5011334;28;20265;-84
2023/09/07 06:50:04;;;;;;;10.37;9.47;;;;;;;17.75;100.00;100092.38;4982616;28;20211;-84
2023/09/07 06:52:33;;;;;;;10.20;9.20;;;;;;;17.86;100.00;100080.59;5000518;28;20209;-85
2023/09/07 06:55:06;;;;;;;9.77;8.97;;;;;;;17.99;100.00;100096.44;5011674;28;20215;-84
2023/09/07 06:57:35;;;;;;;10.27;9.27;;;;;;;18.09;100.00;100095.69;4985658;28;20684;-84
2023/09/07 07:00:06;;;;;;;9.63;8.83;;;;;;;18.26;100.00;100101.81;5018163;28;20293;-83
2023/09/07 07:02:36;;;;;;;9.93;9.13;;;;;;;18.36;100.00;100097.31;4984380;28;20252;-84
2023/09/07 07:05:08;;;;;;;10.17;9.17;;;;;;;18.45;100.00;100089.50;4968543;28;20225;-84
2023/09/07 07:07:43;;;;;;;9.37;8.37;;;;;;;18.57;100.00;100087.44;5016799;28;20291;-83
2023/09/07 07:10:12;;;;;;;9.70;8.70;;;;;;;18.64;100.00;100093.47;5011725;28;20227;-83
2023/09/07 07:12:40;;;;;;;8.47;7.70;;;;;;;18.73;100.00;100091.91;5002790;28;20202;-84
2023/09/07 07:15:11;;;;;;;10.20;9.20;;;;;;;18.80;100.00;100099.81;5000373;28;20288;-83
2023/09/07 07:17:45;;;;;;;9.83;8.87;;;;;;;18.84;100.00;100101.75;4989921;28;20592;-83
2023/09/07 07:20:15;;;;;;;9.50;8.67;;;;;;;18.94;100.00;100102.91;4995348;28;20202;-84
2023/09/07 07:22:53;;;;;;;9.37;8.57;;;;;;;19.05;100.00;100102.66;5002552;28;20209;-84
2023/09/07 07:25:23;;;;;;;9.43;8.53;;;;;;;19.17;100.00;100106.00;4988680;28;20285;-84
2023/09/07 07:27:53;;;;;;;9.07;8.20;;;;;;;19.26;100.00;100095.44;5015409;28;20213;-83
2023/09/07 07:30:23;;;;;;;9.73;8.73;;;;;;;19.39;100.00;100103.09;4988725;28;20223;-84
2023/09/07 07:32:52;;;;;;;9.33;8.23;;;;;;;19.50;100.00;100099.38;4999548;28;20251;-84
2023/09/07 07:35:24;;;;;;;9.53;8.63;;;;;;;19.64;100.00;100100.50;5004670;28;20192;-84
2023/09/07 07:37:56;;;;;;;8.83;8.03;;;;;;;19.76;100.00;100098.38;4970254;28;20738;-83
2023/09/07 07:40:25;;;;;;;9.13;8.27;;;;;;;19.86;100.00;100096.75;4975932;28;20205;-84
2023/09/07 07:42:53;;;;;;;8.73;7.93;;;;;;;20.00;100.00;100103.31;4989946;28;20197;-83
2023/09/07 07:45:22;;;;;;;8.47;7.77;;;;;;;20.07;100.00;100099.22;4978312;28;20322;-85
2023/09/07 07:47:54;;;;;;;8.13;7.43;;;;;;;20.19;100.00;100093.53;4969537;28;20210;-85
2023/09/07 07:50:27;;;;;;;8.77;7.90;;;;;;;20.30;100.00;100091.59;4955103;28;20309;-85
2023/09/07 07:52:58;;;;;;;8.37;7.67;;;;;;;20.43;100.00;100091.94;4963970;28;20207;-85
2023/09/07 07:55:26;;;;;;;9.10;8.20;;;;;;;20.44;100.00;100090.81;4962260;28;20196;-85
2023/09/07 07:57:54;;;;;;;8.17;7.20;;;;;;;20.53;100.00;100096.56;4993562;28;20277;-83
2023/09/07 08:00:22;;;;;;;10.50;7.60;;;;;;;20.63;100.00;100100.06;4960114;28;20208;-83
2023/09/07 08:02:54;;;;;;;9.82;7.88;;;;;;;20.77;100.00;100094.06;4947856;28;20207;-83
2023/09/07 08:05:25;;;;;;;7.87;7.07;;;;;;;20.93;100.00;100093.75;4992962;28;20219;-85
2023/09/07 08:07:56;;;;;;;8.03;7.23;;;;;;;21.07;100.00;100094.81;4962490;28;20214;-84
2023/09/07 08:10:26;;;;;;;7.07;6.47;;;;;;;21.15;100.00;100098.06;4961905;28;20207;-83
2023/09/07 08:12:57;;;;;;;8.05;6.55;;;;;;;21.34;100.00;100097.19;4951290;28;20191;-83
2023/09/07 08:15:34;;;;;;;8.68;7.05;;;;;;;21.44;100.00;100091.69;4987835;28;20208;-84
2023/09/07 08:18:08;;;;;;;10.35;6.40;;;;;;;21.53;100.00;100091.91;4965133;28;20195;-83
2023/09/07 08:20:41;;;;;;;7.53;6.07;;;;;;;21.67;100.00;100097.56;4984139;28;20268;-83
2023/09/07 08:23:11;;;;;;;6.85;6.03;;;;;;;21.82;100.00;100092.03;4972239;28;20206;-83
2023/09/07 08:25:46;;;;;;;8.88;6.30;;;;;;;21.85;100.00;100089.56;5004645;28;20237;-85
2023/09/07 08:28:22;;;;;;;7.28;6.68;;;;;;;21.91;100.00;100091.16;4988882;28;20235;-85
2023/09/07 08:30:56;;;;;;;6.85;6.15;;;;;;;21.99;100.00;100078.03;4980130;28;20213;-84
2023/09/07 08:33:28;;;;;;;6.40;5.80;;;;;;;22.11;100.00;100079.31;4980771;28;20284;-83
2023/09/07 08:36:00;;;;;;;7.88;5.95;;;;;;;22.25;100.00;100082.22;4973271;28;20202;-83
2023/09/07 08:38:30;;;;;;;7.15;5.90;;;;;;;22.42;100.00;100084.53;4994339;28;20234;-83
2023/09/07 08:41:01;;;;;;;6.63;6.03;;;;;;;22.52;100.00;100095.34;4974982;28;20216;-85
2023/09/07 08:43:29;;;;;;;9.35;5.78;;;;;;;22.69;100.00;100087.53;5009829;28;20197;-82
2023/09/07 08:46:26;;;;;;;5.82;5.15;;;;;;;22.85;100.00;100085.50;4993911;28;20588;-83
2023/09/07 08:48:55;;;;;;;5.40;5.00;;;;;;;22.88;100.00;100088.47;4971572;28;20676;-83
2023/09/07 08:51:27;;;;;;;5.57;5.03;;;;;;;22.97;100.00;100084.00;4995676;28;20195;-82
2023/09/07 08:53:56;;;;;;;6.25;4.97;;;;;;;23.05;100.00;100083.34;5002447;28;20205;-83
2023/09/07 08:56:30;;;;;;;7.82;5.28;;;;;;;23.18;100.00;100077.22;5011313;28;20218;-82
2023/09/07 08:59:02;;;;;;;6.15;5.32;;;;;;;23.34;100.00;100077.81;4989124;28;20206;-84
2023/09/07 09:01:32;;;;;;;5.25;4.85;;;;;;;23.45;100.00;100068.41;4981953;28;20202;-85
2023/09/07 09:04:05;;;;;;;5.97;5.10;;;;;;;23.61;100.00;100063.53;4983861;28;20210;-83
2023/09/07 09:06:33;;;;;;;5.93;5.25;;;;;;;23.69;100.00;100060.16;4998028;28;20231;-83
2023/09/07 09:09:05;;;;;;;6.75;5.22;;;;;;;23.82;100.00;100055.84;4981702;28;20195;-83
2023/09/07 09:11:36;;;;;;;6.97;4.53;;;;;;;23.94;100.00;100065.22;4996328;28;20279;-82
2023/09/07 09:14:05;;;;;;;6.25;4.70;;;;;;;24.11;100.00;100053.75;5011546;28;20221;-83
2023/09/07 09:16:32;;;;;;;5.32;3.95;;;;;;;24.31;100.00;100050.69;4981174;28;20197;-84
2023/09/07 09:19:08;;;;;;;5.43;4.35;;;;;;;24.54;100.00;100057.97;4998804;28;20278;-83
2023/09/07 09:21:41;;;;;;;5.40;3.90;;;;;;;24.67;100.00;100050.09;5015494;28;20202;-83
2023/09/07 09:24:10;;;;;;;5.07;4.43;;;;;;;24.80;100.00;100049.28;4979169;28;20206;-83
2023/09/07 09:26:38;;;;;;;4.07;3.55;;;;;;;24.86;100.00;100043.44;4994510;28;20334;-83
2023/09/07 09:29:09;;;;;;;5.90;4.00;;;;;;;24.96;100.00;100043.22;5019113;28;20206;-83
2023/09/07 09:31:39;;;;;;;5.10;3.90;;;;;;;25.13;97.01;100045.38;5000163;28;20274;-83
2023/09/07 09:34:07;;;;;;;4.05;3.60;;;;;;;25.39;91.88;100046.44;4997421;28;20215;-83
2023/09/07 09:36:37;;;;;;;4.63;3.50;;;;;;;25.66;89.68;100037.34;4992516;28;20246;-83
2023/09/07 09:39:05;;;;;;;7.15;3.22;;;;;;;25.89;81.41;100046.44;4965198;28;20306;-83
2023/09/07 09:41:39;;;;;;;4.53;3.38;;;;;;;26.10;75.53;100033.03;4975990;28;20287;-84
2023/09/07 09:44:09;;;;;;;3.53;3.20;;;;;;;26.23;74.54;100038.47;4991714;28;20902;-84
2023/09/07 09:46:41;;;;;;;4.22;3.60;;;;;;;26.33;71.41;100034.66;4990651;28;20268;-84
2023/09/07 09:49:13;;;;;;;3.95;3.35;;;;;;;26.40;71.04;100031.47;5006922;28;20199;-84
2023/09/07 09:51:43;;;;;;;7.60;3.38;;;;;;;26.44;71.67;100032.47;4985741;28;20211;-84
2023/09/07 09:54:14;;;;;;;4.53;3.08;;;;;;;26.47;70.85;100026.34;4975001;28;20204;-85
2023/09/07 09:56:46;;;;;;;4.13;3.25;;;;;;;26.55;68.16;100031.09;4994711;28;20233;-84
2023/09/07 09:59:18;;;;;;;3.55;3.25;;;;;;;26.63;67.73;100022.88;4981213;28;20278;-84
2023/09/07 10:01:50;;;;;;;3.97;3.38;;;;;;;26.72;66.37;100025.66;5009695;28;20674;-83
2023/09/07 10:04:18;;;;;;;4.20;3.30;;;;;;;26.81;65.87;100014.69;4981064;28;20196;-84
2023/09/07 10:06:59;;;;;;;4.57;3.45;;;;;;;26.97;65.29;100022.22;4985968;28;20200;-84
2023/09/07 10:09:37;;;;;;;4.50;3.30;;;;;;;26.94;64.90;100020.13;4970067;28;20272;-84
2023/09/07 10:12:11;;;;;;;5.85;3.00;;;;;;;26.97;63.57;100021.44;4984996;28;20601;-83
2023/09/07 10:14:50;;;;;;;4.00;3.15;;;;;;;27.02;62.51;100016.56;5009112;28;20204;-83
2023/09/07 10:17:32;;;;;;;4.78;3.40;;;;;;;27.14;63.04;100015.97;4992501;28;20200;-83
2023/09/07 10:20:07;;;;;;;4.95;3.30;;;;;;;27.27;61.01;100009.53;4984286;28;20208;-84
2023/09/07 10:22:39;;;;;;;6.30;3.65;;;;;;;27.36;62.31;100001.28;4987679;28;20214;-82
2023/09/07 10:25:22;;;;;;;5.38;3.28;;;;;;;27.44;61.31;100004.03;4983319;28;20220;-84
2023/09/07 10:27:51;;;;;;;3.67;3.38;;;;;;;27.52;59.91;100000.53;4981625;28;20275;-83
2023/09/07 10:30:26;;;;;;;3.75;3.45;;;;;;;27.61;59.92;100002.47;4965033;28;20299;-84
2023/09/07 10:32:54;;;;;;;5.70;3.20;;;;;;;27.67;59.14;100003.94;5005854;28;20192;-83
2023/09/07 10:35:25;;;;;;;3.67;3.20;;;;;;;27.70;59.24;99997.78;5006393;28;20250;-84
2023/09/07 10:37:56;;;;;;;5.47;3.70;;;;;;;27.75;58.33;100005.88;5000909;28;20717;-84
2023/09/07 10:40:30;;;;;;;5.50;3.75;;;;;;;27.70;59.54;100004.09;5002949;28;20198;-84
2023/09/07 10:43:03;;;;;;;4.72;3.47;;;;;;;27.72;59.56;99995.50;5007815;28;20195;-82
2023/09/07 10:45:33;;;;;;;3.95;3.63;;;;;;;27.65;58.69;99992.44;5000677;28;20215;-84
2023/09/07 10:48:07;;;;;;;3.70;3.40;;;;;;;27.72;57.67;99992.75;5010331;28;20658;-84
2023/09/07 10:50:46;;;;;;;4.05;3.65;;;;;;;27.81;58.41;99996.31;5001209;28;20203;-84
2023/09/07 10:53:25;;;;;;;4.40;3.70;;;;;;;27.71;57.38;99993.91;5017955;28;20290;-84
2023/09/07 10:55:55;;;;;;;5.43;3.33;;;;;;;27.61;57.93;99985.97;5026478;28;20238;-84
2023/09/07 10:58:51;;;;;;;4.43;3.50;;;;;;;27.78;57.68;99995.00;4989693;28;20206;-84
2023/09/07 11:01:21;;;;;;;6.72;3.35;;;;;;;27.75;57.12;100000.38;4992273;28;20210;-84
2023/09/07 11:03:52;;;;;;;4.32;3.20;;;;;;;27.75;58.07;99990.16;4990105;28;20233;-84
2023/09/07 11:06:24;;;;;;;3.85;3.55;;;;;;;27.91;59.63;99995.97;4997517;28;20226;-84
2023/09/07 11:08:57;;;;;;;4.38;3.30;;;;;;;27.99;58.39;100000.69;5002484;28;20734;-83
2023/09/07 11:11:25;;;;;;;3.22;3.03;;;;;;;27.86;58.24;99991.44;4993143;28;20218;-84
2023/09/07 11:13:57;;;;;;;4.85;3.83;;;;;;;27.80;58.42;100000.22;4988586;28;20202;-85
2023/09/07 11:16:28;;;;;;;3.83;3.50;;;;;;;27.92;59.78;99992.09;5032866;28;20706;-83
2023/09/07 11:19:02;;;;;;;4.22;3.85;;;;;;;28.14;60.52;99991.09;5020018;28;20198;-83
2023/09/07 11:21:36;;;;;;;4.38;3.47;;;;;;;28.21;60.33;99986.72;4994088;28;20194;-84
2023/09/07 11:24:08;;;;;;;3.60;3.30;;;;;;;28.23;59.04;99980.91;5015594;28;20671;-83
2023/09/07 11:26:46;;;;;;;4.45;3.45;;;;;;;28.16;59.33;99981.38;4988654;28;20722;-82
2023/09/07 11:29:22;;;;;;;3.83;3.42;;;;;;;28.21;58.45;99981.22;4998252;28;20195;-83
2023/09/07 11:31:53;;;;;;;3.85;3.20;;;;;;;28.21;58.82;99974.91;5001358;28;20197;-82
2023/09/07 11:34:23;;;;;;;3.30;3.00;;;;;;;28.33;58.68;99977.75;5010004;28;20671;-84
2023/09/07 11:36:51;;;;;;;4.00;3.47;;;;;;;28.32;58.14;99978.94;4962099;28;20231;-83
2023/09/07 11:39:19;;;;;;;3.70;3.38;;;;;;;28.36;58.35;99974.38;4984759;28;20199;-83
2023/09/07 11:41:47;;;;;;;4.03;3.63;;;;;;;28.38;57.66;99974.84;4985510;28;20623;-83
2023/09/07 11:44:17;;;;;;;5.32;3.40;;;;;;;28.31;56.20;99972.59;4979904;28;20195;-82
2023/09/07 11:46:47;;;;;;;3.80;3.40;;;;;;;28.12;57.30;99968.59;4972705;28;20247;-83
2023/09/07 11:49:19;;;;;;;3.65;3.35;;;;;;;28.30;57.93;99970.16;4994139;28;20261;-83
2023/09/07 11:51:51;;;;;;;3.28;2.97;;;;;;;28.36;55.65;99964.16;4992602;28;20211;-82
2023/09/07 11:54:21;;;;;;;3.72;3.25;;;;;;;28.34;57.48;99969.19;4999271;28;20253;-84
2023/09/07 11:56:49;;;;;;;4.70;3.35;;;;;;;28.43;56.17;99958.94;4992789;28;20196;-84
2023/09/07 11:59:20;;;;;;;3.28;3.08;;;;;;;28.43;56.40;99961.69;5002174;28;20671;-83
2023/09/07 12:01:53;;;;;;;3.58;3.13;;;;;;;28.60;56.40;99963.59;4989462;28;20190;-83
2023/09/07 12:04:28;;;;;;;3.55;3.17;;;;;;;28.66;55.95;99956.72;4988305;28;20192;-84
2023/09/07 12:07:02;;;;;;;3.38;3.05;;;;;;;28.67;54.83;99955.59;4982859;28;20264;-83
2023/09/07 12:09:32;;;;;;;3.78;3.47;;;;;;;28.49;54.63;99951.31;4998842;28;20242;-84
2023/09/07 12:12:03;;;;;;;4.32;3.00;;;;;;;28.55;54.88;99958.25;4987022;28;20211;-84
2023/09/07 12:14:31;;;;;;;3.53;3.20;;;;;;;28.67;55.47;99952.84;4994687;28;20227;-84
2023/09/07 12:17:00;;;;;;;3.65;3.35;;;;;;;28.77;54.63;99949.75;4997954;28;20196;-84
2023/09/07 12:19:29;;;;;;;3.42;3.13;;;;;;;28.63;54.92;99946.38;4999178;28;20660;-83
2023/09/07 12:22:00;;;;;;;4.40;3.50;;;;;;;28.66;54.49;99942.94;4976086;28;20211;-84
2023/09/07 12:24:31;;;;;;;3.63;3.33;;;;;;;28.63;54.62;99935.34;4985341;28;20200;-84
2023/09/07 12:27:06;;;;;;;4.18;3.30;;;;;;;28.77;55.14;99937.91;5002828;28;20227;-85
2023/09/07 12:29:33;;;;;;;3.20;2.90;;;;;;;28.75;54.60;99943.72;4992652;28;20196;-84
2023/09/07 12:32:01;;;;;;;5.63;3.40;;;;;;;28.79;54.07;99944.69;4995290;28;20243;-84
2023/09/07 12:34:31;;;;;;;4.28;3.25;;;;;;;28.78;55.31;99940.34;4979339;28;20682;-83
2023/09/07 12:36:59;;;;;;;3.42;3.10;;;;;;;28.93;54.54;99940.91;4982815;28;20232;-84
2023/09/07 12:39:26;;;;;;;3.70;3.40;;;;;;;28.85;55.24;99950.81;4971098;28;20228;-84
2023/09/07 12:41:56;;;;;;;3.40;3.20;;;;;;;28.79;55.59;99943.88;4980739;28;20229;-84
2023/09/07 12:44:25;;;;;;;3.80;3.50;;;;;;;28.82;55.45;99946.78;4974854;28;20200;-84